createdAt,value
2018-07-08T00:00:49.032Z,1008.97
2018-07-08T00:01:49.034Z,1008.98
2018-07-08T00:02:49.041Z,1008.97
2018-07-08T00:03:49.046Z,1008.96
2018-07-08T00:04:49.053Z,1008.99
2018-07-08T00:05:49.062Z,1008.96
2018-07-08T00:06:49.059Z,1008.96
2018-07-08T00:07:49.062Z,1008.94
2018-07-08T00:08:49.071Z,1008.95
2018-07-08T00:09:49.090Z,1008.97
2018-07-08T00:10:49.074Z,1008.96
2018-07-08T00:11:49.073Z,1008.96
2018-07-08T00:12:49.076Z,1008.96
2018-07-08T00:13:49.086Z,1008.95
2018-07-08T00:14:49.089Z,1008.94
2018-07-08T00:15:49.093Z,1008.97
2018-07-08T00:16:49.099Z,1008.95
2018-07-08T00:19:19.204Z,1008.89
2018-07-08T00:20:10.131Z,1008.98
2018-07-08T00:21:10.140Z,1008.90
2018-07-08T00:22:10.145Z,1008.95
2018-07-08T00:23:10.156Z,1008.91
2018-07-08T00:24:10.151Z,1008.93
2018-07-08T00:25:10.162Z,1008.94
2018-07-08T00:26:10.169Z,1008.91
2018-07-08T00:27:10.162Z,1008.91
2018-07-08T00:28:10.165Z,1008.94
2018-07-08T00:29:10.205Z,1008.96
2018-07-08T00:30:10.171Z,1008.94
2018-07-08T00:31:10.182Z,1008.90
2018-07-08T00:32:10.196Z,1008.95
2018-07-08T00:33:10.194Z,1008.92
2018-07-08T00:34:10.188Z,1008.90
2018-07-08T00:35:10.198Z,1008.92
2018-07-08T00:36:10.201Z,1008.93
2018-07-08T00:37:10.205Z,1008.92
2018-07-08T00:38:10.213Z,1008.96
2018-07-08T00:39:10.216Z,1008.97
2018-07-08T00:40:10.219Z,1008.95
2018-07-08T00:41:10.230Z,1008.95
2018-07-08T00:42:10.225Z,1008.93
2018-07-08T00:43:10.232Z,1008.93
2018-07-08T00:44:10.233Z,1008.96
2018-07-08T00:45:10.243Z,1008.96
2018-07-08T00:46:10.242Z,1008.95
2018-07-08T00:47:10.239Z,1008.96
2018-07-08T00:48:10.251Z,1008.95
2018-07-08T00:49:10.254Z,1008.94
2018-07-08T00:50:10.258Z,1008.93
2018-07-08T00:51:10.256Z,1008.91
2018-07-08T00:52:10.272Z,1008.93
2018-07-08T00:53:10.274Z,1008.92
2018-07-08T00:54:10.274Z,1008.90
2018-07-08T00:55:10.272Z,1008.91
2018-07-08T00:56:10.276Z,1008.90
2018-07-08T00:57:10.281Z,1008.88
2018-07-08T00:58:10.285Z,1008.87
2018-07-08T00:59:10.290Z,1008.90
2018-07-08T01:00:10.297Z,1008.89
2018-07-08T01:01:10.302Z,1008.92
2018-07-08T01:02:10.303Z,1008.92
2018-07-08T01:03:10.308Z,1008.90
2018-07-08T01:04:10.309Z,1008.90
2018-07-08T01:05:10.321Z,1008.91
2018-07-08T01:06:10.316Z,1008.87
2018-07-08T01:07:10.325Z,1008.92
2018-07-08T01:08:10.327Z,1008.93
2018-07-08T01:09:10.328Z,1008.98
2018-07-08T01:10:10.337Z,1008.95
2018-07-08T01:11:10.341Z,1008.96
2018-07-08T01:12:10.344Z,1008.97
2018-07-08T01:13:10.352Z,1009.00
2018-07-08T01:14:10.354Z,1008.97
2018-07-08T01:15:10.357Z,1008.96
2018-07-08T01:16:10.358Z,1008.97
2018-07-08T01:17:10.355Z,1008.99
2018-07-08T01:18:10.368Z,1009.02
2018-07-08T01:19:10.373Z,1009.00
2018-07-08T01:20:10.372Z,1009.02
2018-07-08T01:21:10.376Z,1009.01
2018-07-08T01:22:10.381Z,1009.04
2018-07-08T01:23:10.388Z,1009.03
2018-07-08T01:24:10.388Z,1009.02
2018-07-08T01:25:10.395Z,1009.02
2018-07-08T01:26:10.392Z,1009.01
2018-07-08T01:27:10.396Z,1009.03
2018-07-08T01:28:10.401Z,1009.02
2018-07-08T01:29:10.404Z,1008.98
2018-07-08T01:30:10.418Z,1009.02
2018-07-08T01:31:10.425Z,1009.02
2018-07-08T01:32:10.416Z,1009.03
2018-07-08T01:33:10.431Z,1009.04
2018-07-08T01:34:10.429Z,1009.03
2018-07-08T01:35:10.434Z,1009.04
2018-07-08T01:36:10.431Z,1009.05
2018-07-08T01:37:10.434Z,1009.02
2018-07-08T01:38:10.445Z,1009.00
2018-07-08T01:39:10.445Z,1009.04
2018-07-08T01:40:10.447Z,1009.00
2018-07-08T01:41:10.450Z,1009.00
2018-07-08T01:42:10.457Z,1009.00
2018-07-08T01:43:10.471Z,1009.02
2018-07-08T01:44:10.457Z,1009.01
2018-07-08T01:45:10.463Z,1008.99
2018-07-08T01:46:10.469Z,1008.99
2018-07-08T01:47:10.472Z,1008.98
2018-07-08T01:48:10.478Z,1008.97
2018-07-08T01:49:10.480Z,1008.99
2018-07-08T01:50:10.483Z,1009.02
2018-07-08T01:51:10.484Z,1009.04
2018-07-08T01:52:10.489Z,1009.02
2018-07-08T01:53:10.490Z,1008.97
2018-07-08T01:54:10.500Z,1009.00
2018-07-08T01:55:10.503Z,1009.00
2018-07-08T01:56:10.505Z,1009.02
2018-07-08T01:57:10.502Z,1008.98
2018-07-08T01:58:10.506Z,1009.04
2018-07-08T01:59:10.513Z,1009.03
2018-07-08T02:00:19.145Z,1009.01
2018-07-08T02:02:03.934Z,1009.04
2018-07-08T02:03:03.921Z,1009.06
2018-07-08T02:04:03.925Z,1009.04
2018-07-08T02:05:03.932Z,1009.02
2018-07-08T02:06:03.929Z,1009.04
2018-07-08T02:07:04.017Z,1009.04
2018-07-08T02:08:03.941Z,1009.01
2018-07-08T02:09:03.947Z,1009.05
2018-07-08T02:10:03.947Z,1008.98
2018-07-08T02:11:03.947Z,1009.01
2018-07-08T02:12:03.953Z,1009.00
2018-07-08T02:13:03.957Z,1009.01
2018-07-08T02:14:03.957Z,1009.02
2018-07-08T02:15:03.962Z,1009.06
2018-07-08T02:16:03.964Z,1009.09
2018-07-08T02:17:03.972Z,1009.08
2018-07-08T02:18:03.973Z,1009.09
2018-07-08T02:19:03.973Z,1009.10
2018-07-08T02:20:03.985Z,1009.09
2018-07-08T02:21:04.002Z,1009.06
2018-07-08T02:22:03.983Z,1009.10
2018-07-08T02:23:03.991Z,1009.08
2018-07-08T02:24:12.621Z,1009.03
2018-07-08T02:25:57.403Z,1009.07
2018-07-08T02:26:57.393Z,1009.04
2018-07-08T02:27:57.396Z,1009.03
2018-07-08T02:28:57.398Z,1009.03
2018-07-08T02:29:57.402Z,1009.04
2018-07-08T02:30:57.406Z,1009.04
2018-07-08T02:31:57.407Z,1009.09
2018-07-08T02:32:57.415Z,1009.08
2018-07-08T02:33:57.412Z,1009.05
2018-07-08T02:34:57.416Z,1009.03
2018-07-08T02:35:57.426Z,1009.04
2018-07-08T02:36:57.421Z,1009.07
2018-07-08T02:37:57.430Z,1009.06
2018-07-08T02:38:57.429Z,1009.04
2018-07-08T02:39:57.434Z,1009.02
2018-07-08T02:40:57.435Z,1009.02
2018-07-08T02:41:57.443Z,1009.01
2018-07-08T02:42:57.450Z,1009.01
2018-07-08T02:43:57.442Z,1008.95
2018-07-08T02:44:57.448Z,1008.99
2018-07-08T02:45:57.451Z,1008.96
2018-07-08T02:46:57.455Z,1008.98
2018-07-08T02:47:57.453Z,1008.94
2018-07-08T02:48:57.473Z,1008.98
2018-07-08T02:49:57.480Z,1009.00
2018-07-08T02:50:57.483Z,1009.00
2018-07-08T02:51:57.467Z,1008.97
2018-07-08T02:52:57.476Z,1008.98
2018-07-08T02:53:57.476Z,1009.01
2018-07-08T02:54:57.483Z,1008.99
2018-07-08T02:55:57.488Z,1009.00
2018-07-08T02:56:57.492Z,1009.00
2018-07-08T02:57:57.488Z,1009.05
2018-07-08T02:58:57.489Z,1009.03
2018-07-08T03:18:22.520Z,1009.04
2018-07-08T03:19:22.500Z,1008.99
2018-07-08T03:20:22.500Z,1009.02
2018-07-08T03:21:22.498Z,1009.01
2018-07-08T03:22:22.493Z,1009.04
2018-07-08T03:23:22.504Z,1009.02
2018-07-08T03:24:22.492Z,1009.00
2018-07-08T03:25:22.497Z,1009.00
2018-07-08T03:26:22.496Z,1008.95
2018-07-08T03:27:22.498Z,1009.01
2018-07-08T03:28:22.500Z,1009.00
2018-07-08T03:29:22.503Z,1009.00
2018-07-08T03:30:22.502Z,1009.01
2018-07-08T03:31:22.506Z,1009.02
2018-07-08T03:32:22.504Z,1009.03
2018-07-08T03:33:22.522Z,1009.07
2018-07-08T03:34:22.508Z,1009.07
2018-07-08T03:35:22.516Z,1009.06
2018-07-08T03:36:22.522Z,1009.04
2018-07-08T03:37:22.513Z,1009.09
2018-07-08T03:38:22.514Z,1009.06
2018-07-08T03:39:22.514Z,1009.06
2018-07-08T03:40:22.526Z,1009.07
2018-07-08T03:41:22.522Z,1009.08
2018-07-08T03:42:22.539Z,1009.09
2018-07-08T03:43:22.528Z,1009.08
2018-07-08T03:44:22.529Z,1009.10
2018-07-08T03:45:22.529Z,1009.10
2018-07-08T03:46:22.532Z,1009.13
2018-07-08T03:47:22.540Z,1009.14
2018-07-08T03:48:22.536Z,1009.17
2018-07-08T03:49:22.538Z,1009.14
2018-07-08T03:50:22.547Z,1009.16
2018-07-08T03:51:22.548Z,1009.20
2018-07-08T03:52:22.544Z,1009.16
2018-07-08T03:53:22.560Z,1009.19
2018-07-08T03:54:22.557Z,1009.18
2018-07-08T03:55:22.588Z,1009.19
2018-07-08T03:56:22.556Z,1009.17
2018-07-08T03:57:22.563Z,1009.19
2018-07-08T03:58:22.570Z,1009.21
2018-07-08T03:59:22.561Z,1009.17
2018-07-08T04:00:22.569Z,1009.18
2018-07-08T04:01:22.571Z,1009.16
2018-07-08T04:02:22.570Z,1009.17
2018-07-08T04:03:22.570Z,1009.15
2018-07-08T04:04:22.582Z,1009.11
2018-07-08T04:05:22.579Z,1009.13
2018-07-08T04:06:22.582Z,1009.15
2018-07-08T04:07:22.585Z,1009.16
2018-07-08T04:08:22.591Z,1009.15
2018-07-08T04:09:22.583Z,1009.11
2018-07-08T04:10:22.596Z,1009.11
2018-07-08T04:11:22.593Z,1009.12
2018-07-08T04:12:22.598Z,1009.13
2018-07-08T04:13:22.707Z,1009.18
2018-07-08T04:14:22.601Z,1009.16
2018-07-08T04:15:22.624Z,1009.19
2018-07-08T04:16:22.608Z,1009.20
2018-07-08T04:17:22.611Z,1009.22
2018-07-08T04:18:22.613Z,1009.23
2018-07-08T04:19:22.620Z,1009.25
2018-07-08T04:20:22.617Z,1009.25
2018-07-08T04:21:22.618Z,1009.17
2018-07-08T04:22:22.624Z,1009.17
2018-07-08T04:23:22.623Z,1009.15
2018-07-08T04:24:22.628Z,1009.22
2018-07-08T04:25:22.634Z,1009.19
2018-07-08T04:26:22.636Z,1009.22
2018-07-08T04:27:22.632Z,1009.24
2018-07-08T04:28:31.269Z,1009.23
2018-07-08T04:30:16.068Z,1009.21
2018-07-08T04:31:16.053Z,1009.23
2018-07-08T04:32:16.039Z,1009.22
2018-07-08T04:33:16.046Z,1009.29
2018-07-08T04:34:16.050Z,1009.29
2018-07-08T04:35:16.048Z,1009.29
2018-07-08T04:36:16.050Z,1009.34
2018-07-08T04:37:16.054Z,1009.37
2018-07-08T04:38:16.060Z,1009.31
2018-07-08T04:39:16.064Z,1009.34
2018-07-08T04:40:16.068Z,1009.35
2018-07-08T04:41:16.151Z,1009.36
2018-07-08T04:42:16.076Z,1009.42
2018-07-08T04:43:16.079Z,1009.42
2018-07-08T04:44:16.082Z,1009.42
2018-07-08T04:45:16.084Z,1009.43
2018-07-08T04:46:16.090Z,1009.46
2018-07-08T04:47:16.102Z,1009.50
2018-07-08T04:48:16.097Z,1009.51
2018-07-08T04:49:16.177Z,1009.52
2018-07-08T04:50:16.118Z,1009.53
2018-07-08T04:51:16.125Z,1009.60
2018-07-08T04:52:16.135Z,1009.60
2018-07-08T04:53:16.141Z,1009.63
2018-07-08T04:54:16.183Z,1009.67
2018-07-08T04:55:16.156Z,1009.69
2018-07-08T04:56:16.172Z,1009.75
2018-07-08T04:57:16.175Z,1009.69
2018-07-08T04:58:16.189Z,1009.70
2018-07-08T04:59:16.197Z,1009.71
2018-07-08T05:00:16.209Z,1009.73
2018-07-08T05:01:16.219Z,1009.76
2018-07-08T05:02:16.229Z,1009.77
2018-07-08T05:03:16.248Z,1009.77
2018-07-08T05:04:16.266Z,1009.79
2018-07-08T05:05:16.280Z,1009.76
2018-07-08T05:06:16.286Z,1009.79
2018-07-08T05:07:16.308Z,1009.80
2018-07-08T05:08:16.314Z,1009.82
2018-07-08T05:09:16.326Z,1009.83
2018-07-08T05:10:16.344Z,1009.82
2018-07-08T05:11:16.353Z,1009.85
2018-07-08T05:12:16.381Z,1009.86
2018-07-08T05:13:16.398Z,1009.88
2018-07-08T05:14:16.407Z,1009.96
2018-07-08T05:15:16.454Z,1009.90
2018-07-08T05:16:16.466Z,1009.86
2018-07-08T05:17:16.455Z,1009.88
2018-07-08T05:18:16.473Z,1009.88
2018-07-08T05:19:16.504Z,1009.88
2018-07-08T05:20:16.511Z,1009.95
2018-07-08T05:21:16.522Z,1009.92
2018-07-08T05:22:16.537Z,1009.93
2018-07-08T05:23:16.565Z,1009.88
2018-07-08T05:24:16.744Z,1009.94
2018-07-08T05:25:16.595Z,1009.93
2018-07-08T05:26:16.628Z,1009.95
2018-07-08T05:27:16.627Z,1009.98
2018-07-08T05:28:16.651Z,1009.92
2018-07-08T05:29:16.668Z,1009.88
2018-07-08T05:30:16.691Z,1009.83
2018-07-08T05:31:16.719Z,1009.86
2018-07-08T05:32:16.732Z,1009.85
2018-07-08T05:33:16.776Z,1009.80
2018-07-08T05:34:16.767Z,1009.80
2018-07-08T05:35:16.790Z,1009.76
2018-07-08T05:36:16.807Z,1009.76
2018-07-08T05:37:16.822Z,1009.70
2018-07-08T05:38:16.861Z,1009.69
2018-07-08T05:39:16.900Z,1009.69
2018-07-08T05:40:16.899Z,1009.70
2018-07-08T05:41:16.908Z,1009.69
2018-07-08T05:42:16.947Z,1009.61
2018-07-08T05:43:16.954Z,1009.60
2018-07-08T05:44:16.981Z,1009.60
2018-07-08T05:45:17.000Z,1009.70
2018-07-08T05:46:17.012Z,1009.85
2018-07-08T05:47:17.031Z,1010.03
2018-07-08T05:48:17.052Z,1010.03
2018-07-08T05:49:17.197Z,1010.02
2018-07-08T05:50:17.117Z,1010.05
2018-07-08T05:51:17.125Z,1010.01
2018-07-08T05:52:17.152Z,1010.04
2018-07-08T05:53:17.186Z,1010.08
2018-07-08T05:54:17.200Z,1010.02
2018-07-08T05:55:17.344Z,1009.99
2018-07-08T05:56:17.234Z,1010.00
2018-07-08T05:57:17.282Z,1010.01
2018-07-08T05:58:17.282Z,1009.98
2018-07-08T05:59:17.294Z,1009.97
2018-07-08T06:00:17.316Z,1009.88
2018-07-08T06:01:17.338Z,1010.01
2018-07-08T06:02:17.384Z,1010.24
2018-07-08T06:03:17.377Z,1010.29
2018-07-08T06:04:17.397Z,1010.16
2018-07-08T06:05:17.422Z,1010.06
2018-07-08T06:06:17.441Z,1010.08
2018-07-08T06:07:17.468Z,1010.08
2018-07-08T06:08:17.488Z,1010.04
2018-07-08T06:09:17.508Z,1010.07
2018-07-08T06:10:17.532Z,1009.98
2018-07-08T06:11:17.554Z,1009.98
2018-07-08T06:12:17.583Z,1010.48
2018-07-08T06:13:17.591Z,1009.90
2018-07-08T06:14:17.606Z,1012.12
2018-07-08T06:15:17.644Z,1012.35
2018-07-08T06:16:17.685Z,1011.26
2018-07-08T06:17:17.660Z,1010.38
2018-07-08T06:18:17.680Z,1009.88
2018-07-08T06:19:17.694Z,1009.95
2018-07-08T06:20:17.717Z,1009.90
2018-07-08T06:21:17.732Z,1009.88
2018-07-08T06:22:17.745Z,1009.95
2018-07-08T06:23:17.761Z,1009.88
2018-07-08T06:24:17.781Z,1009.89
2018-07-08T06:25:17.806Z,1009.88
2018-07-08T06:26:17.828Z,1009.90
2018-07-08T06:27:17.821Z,1009.94
2018-07-08T06:28:17.837Z,1009.88
2018-07-08T06:29:17.852Z,1009.88
2018-07-08T06:30:17.868Z,1009.87
2018-07-08T06:31:17.881Z,1009.86
2018-07-08T06:32:17.888Z,1009.87
2018-07-08T06:33:17.906Z,1009.83
2018-07-08T06:34:17.917Z,1009.77
2018-07-08T06:35:17.926Z,1009.81
2018-07-08T06:36:17.955Z,1009.82
2018-07-08T06:37:17.948Z,1009.83
2018-07-08T06:38:17.964Z,1009.85
2018-07-08T06:39:17.991Z,1009.83
2018-07-08T06:40:17.991Z,1009.82
2018-07-08T06:41:17.997Z,1009.83
2018-07-08T06:42:18.009Z,1009.83
2018-07-08T06:43:18.018Z,1009.84
2018-07-08T06:44:18.038Z,1009.80
2018-07-08T06:45:18.039Z,1009.80
2018-07-08T06:46:18.051Z,1009.79
2018-07-08T06:47:18.057Z,1009.82
2018-07-08T06:48:18.082Z,1009.81
2018-07-08T06:49:18.085Z,1009.82
2018-07-08T06:50:18.091Z,1009.81
2018-07-08T06:51:18.140Z,1009.83
2018-07-08T06:52:18.110Z,1009.87
2018-07-08T06:53:18.114Z,1009.86
2018-07-08T06:54:18.133Z,1009.83
2018-07-08T06:55:18.142Z,1009.86
2018-07-08T06:56:18.146Z,1009.82
2018-07-08T06:57:18.147Z,1009.85
2018-07-08T06:58:18.197Z,1009.84
2018-07-08T06:59:18.170Z,1009.88
2018-07-08T07:00:18.180Z,1009.87
2018-07-08T07:01:18.191Z,1009.87
2018-07-08T07:02:18.198Z,1009.89
2018-07-08T07:03:18.213Z,1009.86
2018-07-08T07:04:18.209Z,1009.88
2018-07-08T07:05:18.218Z,1009.82
2018-07-08T07:06:18.224Z,1009.89
2018-07-08T07:07:18.235Z,1009.91
2018-07-08T07:08:18.251Z,1009.86
2018-07-08T07:09:18.252Z,1009.87
2018-07-08T07:10:18.255Z,1009.91
2018-07-08T07:11:18.274Z,1009.90
2018-07-08T07:12:18.277Z,1009.88
2018-07-08T07:13:18.280Z,1009.90
2018-07-08T07:14:18.294Z,1009.83
2018-07-08T07:15:18.299Z,1009.80
2018-07-08T07:16:18.304Z,1009.82
2018-07-08T07:17:18.369Z,1009.84
2018-07-08T07:18:18.316Z,1009.79
2018-07-08T07:19:18.336Z,1009.79
2018-07-08T07:20:18.336Z,1009.79
2018-07-08T07:21:18.344Z,1009.77
2018-07-08T07:22:18.355Z,1009.78
2018-07-08T07:23:18.364Z,1009.75
2018-07-08T07:24:18.364Z,1009.78
2018-07-08T07:25:18.376Z,1009.80
2018-07-08T07:26:18.381Z,1009.76
2018-07-08T07:27:18.386Z,1009.77
2018-07-08T07:28:18.394Z,1009.76
2018-07-08T07:29:18.548Z,1009.77
2018-07-08T07:30:18.425Z,1009.74
2018-07-08T07:31:18.433Z,1009.77
2018-07-08T07:32:18.422Z,1009.74
2018-07-08T07:33:18.441Z,1009.79
2018-07-08T07:34:18.452Z,1009.73
2018-07-08T07:35:18.451Z,1009.71
2018-07-08T07:36:18.458Z,1009.73
2018-07-08T07:37:18.499Z,1009.72
2018-07-08T07:38:18.471Z,1009.75
2018-07-08T07:39:18.475Z,1009.76
2018-07-08T07:40:18.486Z,1009.76
2018-07-08T07:41:18.499Z,1009.71
2018-07-08T07:42:18.500Z,1009.70
2018-07-08T07:43:18.515Z,1009.75
2018-07-08T07:44:18.513Z,1009.73
2018-07-08T07:45:18.521Z,1009.73
2018-07-08T07:46:18.525Z,1009.76
2018-07-08T07:47:18.537Z,1009.73
2018-07-08T07:48:18.542Z,1009.72
2018-07-08T07:49:18.544Z,1009.74
2018-07-08T07:50:18.554Z,1009.72
2018-07-08T07:51:18.648Z,1009.68
2018-07-08T07:52:18.570Z,1009.66
2018-07-08T07:53:18.578Z,1009.67
2018-07-08T07:54:18.590Z,1009.67
2018-07-08T07:55:18.591Z,1009.62
2018-07-08T07:56:18.598Z,1009.63
2018-07-08T07:57:18.604Z,1009.61
2018-07-08T07:58:18.616Z,1009.62
2018-07-08T07:59:18.616Z,1009.63
2018-07-08T08:00:18.623Z,1009.59
2018-07-08T08:01:18.630Z,1009.63
2018-07-08T08:02:18.647Z,1009.63
2018-07-08T08:03:18.651Z,1009.59
2018-07-08T08:04:18.653Z,1009.62
2018-07-08T08:05:18.666Z,1009.64
2018-07-08T08:06:18.673Z,1009.63
2018-07-08T08:07:18.680Z,1009.62
2018-07-08T08:08:18.822Z,1009.63
2018-07-08T08:09:18.689Z,1009.66
2018-07-08T08:10:18.732Z,1009.64
2018-07-08T08:11:18.701Z,1009.64
2018-07-08T08:12:18.709Z,1009.60
2018-07-08T08:13:18.717Z,1009.62
2018-07-08T08:14:18.734Z,1009.60
2018-07-08T08:15:18.731Z,1009.61
2018-07-08T08:16:18.740Z,1009.59
2018-07-08T08:17:18.742Z,1009.63
2018-07-08T08:18:18.750Z,1009.63
2018-07-08T08:19:18.763Z,1009.61
2018-07-08T08:20:18.763Z,1009.61
2018-07-08T08:21:18.785Z,1009.60
2018-07-08T08:22:18.833Z,1009.59
2018-07-08T08:23:18.790Z,1009.59
2018-07-08T08:24:18.816Z,1009.63
2018-07-08T08:25:18.796Z,1009.62
2018-07-08T08:26:18.861Z,1009.59
2018-07-08T08:27:18.809Z,1009.62
2018-07-08T08:28:18.842Z,1009.64
2018-07-08T08:29:18.832Z,1009.64
2018-07-08T08:30:18.838Z,1009.67
2018-07-08T08:31:18.847Z,1009.67
2018-07-08T08:32:18.848Z,1009.66
2018-07-08T08:33:18.855Z,1009.67
2018-07-08T08:34:18.877Z,1009.63
2018-07-08T08:35:18.903Z,1009.66
2018-07-08T08:36:18.891Z,1009.64
2018-07-08T08:38:39.990Z,1009.64
2018-07-08T08:39:39.975Z,1009.65
2018-07-08T08:40:39.980Z,1009.65
2018-07-08T08:41:39.994Z,1009.66
2018-07-08T08:42:40.008Z,1009.66
2018-07-08T08:43:40.003Z,1009.63
2018-07-08T08:44:40.003Z,1009.65
2018-07-08T08:45:40.009Z,1009.62
2018-07-08T08:46:40.020Z,1009.65
2018-07-08T08:47:40.026Z,1009.63
2018-07-08T08:48:40.055Z,1009.65
2018-07-08T08:49:40.036Z,1009.65
2018-07-08T08:50:40.043Z,1009.63
2018-07-08T08:51:40.061Z,1009.70
2018-07-08T08:52:40.061Z,1009.69
2018-07-08T08:53:40.100Z,1009.68
2018-07-08T08:54:40.076Z,1009.68
2018-07-08T08:55:40.078Z,1009.68
2018-07-08T08:56:40.102Z,1009.67
2018-07-08T08:57:40.106Z,1009.65
2018-07-08T08:58:40.105Z,1009.61
2018-07-08T08:59:40.103Z,1009.62
2018-07-08T09:00:40.114Z,1009.66
2018-07-08T09:01:40.117Z,1009.65
2018-07-08T09:02:40.127Z,1009.64
2018-07-08T09:03:40.169Z,1009.64
2018-07-08T09:04:40.135Z,1009.69
2018-07-08T09:05:40.240Z,1009.65
2018-07-08T09:06:40.187Z,1009.60
2018-07-08T09:07:40.175Z,1009.60
2018-07-08T09:08:40.177Z,1009.59
2018-07-08T09:09:40.187Z,1009.60
2018-07-08T09:10:40.221Z,1009.61
2018-07-08T09:11:40.209Z,1009.59
2018-07-08T09:12:40.196Z,1009.63
2018-07-08T09:13:40.196Z,1009.63
2018-07-08T09:14:40.207Z,1009.58
2018-07-08T09:15:40.214Z,1009.62
2018-07-08T09:16:40.215Z,1009.58
2018-07-08T09:17:40.224Z,1009.57
2018-07-08T09:18:40.230Z,1009.54
2018-07-08T09:19:40.234Z,1009.57
2018-07-08T09:20:40.244Z,1009.54
2018-07-08T09:21:40.273Z,1009.53
2018-07-08T09:22:40.273Z,1009.54
2018-07-08T09:23:40.342Z,1009.55
2018-07-08T09:24:40.269Z,1009.58
2018-07-08T09:25:40.285Z,1009.54
2018-07-08T09:26:40.280Z,1009.60
2018-07-08T09:27:40.291Z,1009.57
2018-07-08T09:28:40.292Z,1009.60
2018-07-08T09:29:40.428Z,1009.61
2018-07-08T09:30:40.304Z,1009.60
2018-07-08T09:31:40.310Z,1009.56
2018-07-08T09:32:40.319Z,1009.60
2018-07-08T09:33:40.339Z,1009.64
2018-07-08T09:34:40.387Z,1009.58
2018-07-08T09:35:40.424Z,1009.56
2018-07-08T09:36:40.346Z,1009.57
2018-07-08T09:37:40.364Z,1009.48
2018-07-08T09:38:40.434Z,1009.53
2018-07-08T09:39:40.362Z,1009.59
2018-07-08T09:40:40.375Z,1009.56
2018-07-08T09:41:40.727Z,1009.56
2018-07-08T09:42:40.395Z,1009.60
2018-07-08T09:43:40.389Z,1009.57
2018-07-08T09:44:40.468Z,1009.57
2018-07-08T09:45:40.413Z,1009.57
2018-07-08T09:46:40.414Z,1009.55
2018-07-08T09:47:40.418Z,1009.53
2018-07-08T09:48:40.425Z,1009.51
2018-07-08T09:49:40.428Z,1009.47
2018-07-08T09:50:40.435Z,1009.49
2018-07-08T09:51:40.447Z,1009.51
2018-07-08T09:52:40.599Z,1009.53
2018-07-08T09:53:40.455Z,1009.54
2018-07-08T09:54:40.462Z,1009.55
2018-07-08T09:55:40.463Z,1009.54
2018-07-08T09:56:40.470Z,1009.53
2018-07-08T09:57:40.484Z,1009.57
2018-07-08T09:58:40.490Z,1009.51
2018-07-08T09:59:40.493Z,1009.58
2018-07-08T10:00:40.506Z,1009.55
2018-07-08T10:01:40.524Z,1009.62
2018-07-08T10:02:40.512Z,1009.64
2018-07-08T10:03:40.522Z,1009.63
2018-07-08T10:04:40.627Z,1009.63
2018-07-08T10:05:40.537Z,1009.64
2018-07-08T10:06:40.556Z,1009.53
2018-07-08T10:07:40.554Z,1009.62
2018-07-08T10:08:40.576Z,1009.70
2018-07-08T10:09:40.564Z,1009.55
2018-07-08T10:10:40.566Z,1009.55
2018-07-08T10:11:40.575Z,1009.56
2018-07-08T10:12:40.620Z,1009.51
2018-07-08T10:13:40.599Z,1009.54
2018-07-08T10:14:40.593Z,1009.56
2018-07-08T10:15:40.602Z,1009.54
2018-07-08T10:16:40.635Z,1009.56
2018-07-08T10:17:40.623Z,1009.56
2018-07-08T10:18:40.628Z,1009.69
2018-07-08T10:19:40.712Z,1009.62
2018-07-08T10:20:40.639Z,1009.60
2018-07-08T10:21:40.640Z,1009.51
2018-07-08T10:22:40.648Z,1009.50
2018-07-08T10:23:40.656Z,1009.57
2018-07-08T10:24:40.660Z,1009.54
2018-07-08T10:25:40.664Z,1009.59
2018-07-08T10:26:40.670Z,1009.55
2018-07-08T10:27:40.684Z,1009.51
2018-07-08T10:28:40.695Z,1009.58
2018-07-08T10:29:40.691Z,1009.62
2018-07-08T10:30:40.702Z,1009.53
2018-07-08T10:31:40.712Z,1009.52
2018-07-08T10:32:40.710Z,1009.54
2018-07-08T10:33:40.742Z,1009.53
2018-07-08T10:34:40.729Z,1009.50
2018-07-08T10:35:40.730Z,1009.54
2018-07-08T10:36:40.814Z,1009.44
2018-07-08T10:37:40.745Z,1009.50
2018-07-08T10:38:40.750Z,1009.51
2018-07-08T10:39:40.774Z,1009.48
2018-07-08T10:40:40.771Z,1009.48
2018-07-08T10:41:40.781Z,1009.49
2018-07-08T10:42:40.808Z,1009.43
2018-07-08T10:43:40.870Z,1009.48
2018-07-08T10:44:40.800Z,1009.41
2018-07-08T10:45:40.834Z,1009.48
2018-07-08T10:46:40.806Z,1009.43
2018-07-08T10:47:40.851Z,1009.43
2018-07-08T10:48:40.853Z,1009.46
2018-07-08T10:49:40.836Z,1009.49
2018-07-08T10:50:40.831Z,1009.48
2018-07-08T10:51:40.854Z,1009.47
2018-07-08T10:52:40.853Z,1009.45
2018-07-08T10:53:40.888Z,1009.47
2018-07-08T10:54:40.860Z,1009.45
2018-07-08T10:55:40.901Z,1009.44
2018-07-08T10:56:40.883Z,1009.44
2018-07-08T10:57:40.881Z,1009.42
2018-07-08T10:58:40.884Z,1009.42
2018-07-08T10:59:40.905Z,1009.44
2018-07-08T11:00:40.905Z,1009.40
2018-07-08T11:01:40.919Z,1009.38
2018-07-08T11:02:40.920Z,1009.40
2018-07-08T11:03:40.928Z,1009.35
2018-07-08T11:04:40.936Z,1009.37
2018-07-08T11:05:40.934Z,1009.36
2018-07-08T11:06:40.946Z,1009.36
2018-07-08T11:07:40.952Z,1009.37
2018-07-08T11:08:40.952Z,1009.34
2018-07-08T11:09:40.961Z,1009.36
2018-07-08T11:10:41.020Z,1009.32
2018-07-08T11:11:40.997Z,1009.38
2018-07-08T11:12:40.982Z,1009.39
2018-07-08T11:13:41.016Z,1009.41
2018-07-08T11:14:40.995Z,1009.41
2018-07-08T11:15:41.004Z,1009.41
2018-07-08T11:16:41.008Z,1009.40
2018-07-08T11:17:41.020Z,1009.39
2018-07-08T11:18:41.030Z,1009.37
2018-07-08T11:19:41.031Z,1009.37
2018-07-08T11:20:41.121Z,1009.42
2018-07-08T11:21:41.047Z,1009.42
2018-07-08T11:22:41.053Z,1009.37
2018-07-08T11:23:41.057Z,1009.38
2018-07-08T11:24:41.068Z,1009.28
2018-07-08T11:25:41.074Z,1009.23
2018-07-08T11:26:41.080Z,1009.42
2018-07-08T11:27:41.085Z,1009.40
2018-07-08T11:28:41.128Z,1009.44
2018-07-08T11:29:41.098Z,1009.41
2018-07-08T11:30:41.110Z,1009.37
2018-07-08T11:31:41.111Z,1009.36
2018-07-08T11:32:41.121Z,1009.41
2018-07-08T11:33:41.126Z,1009.37
2018-07-08T11:34:41.140Z,1009.39
2018-07-08T11:35:41.137Z,1009.38
2018-07-08T11:36:41.188Z,1009.41
2018-07-08T11:37:41.156Z,1009.39
2018-07-08T11:38:41.161Z,1009.39
2018-07-08T11:39:41.169Z,1009.35
2018-07-08T11:40:41.176Z,1009.33
2018-07-08T11:41:41.180Z,1009.35
2018-07-08T11:42:41.190Z,1009.34
2018-07-08T11:43:41.192Z,1009.37
2018-07-08T11:44:41.203Z,1009.28
2018-07-08T11:45:41.216Z,1009.39
2018-07-08T11:46:41.218Z,1009.40
2018-07-08T11:47:41.221Z,1009.36
2018-07-08T11:48:41.227Z,1009.35
2018-07-08T11:49:41.245Z,1009.35
2018-07-08T11:50:41.243Z,1009.46
2018-07-08T11:51:41.250Z,1009.41
2018-07-08T11:52:41.260Z,1009.36
2018-07-08T11:53:41.267Z,1009.37
2018-07-08T11:54:41.270Z,1009.29
2018-07-08T11:55:41.291Z,1009.31
2018-07-08T11:56:41.287Z,1009.27
2018-07-08T11:57:41.295Z,1009.28
2018-07-08T11:58:41.315Z,1009.27
2018-07-08T11:59:41.305Z,1009.26
2018-07-08T12:00:41.320Z,1009.27
2018-07-08T12:01:41.326Z,1009.32
2018-07-08T12:02:41.327Z,1009.23
2018-07-08T12:03:41.333Z,1009.29
2018-07-08T12:04:41.343Z,1009.24
2018-07-08T12:05:41.348Z,1009.18
2018-07-08T12:06:41.355Z,1009.23
2018-07-08T12:07:41.364Z,1009.20
2018-07-08T12:08:41.370Z,1009.19
2018-07-08T12:09:41.379Z,1009.25
2018-07-08T12:10:41.381Z,1009.17
2018-07-08T12:11:41.388Z,1009.16
2018-07-08T12:12:41.394Z,1009.21
2018-07-08T12:13:41.404Z,1009.19
2018-07-08T12:14:41.408Z,1009.14
2018-07-08T12:15:41.417Z,1009.21
2018-07-08T12:16:41.424Z,1009.24
2018-07-08T12:17:41.428Z,1009.21
2018-07-08T12:18:41.439Z,1009.27
2018-07-08T12:19:41.446Z,1009.36
2018-07-08T12:20:41.454Z,1009.24
2018-07-08T12:21:41.456Z,1009.26
2018-07-08T12:22:41.463Z,1009.23
2018-07-08T12:23:41.468Z,1009.23
2018-07-08T12:24:41.475Z,1009.26
2018-07-08T12:25:41.486Z,1009.26
2018-07-08T12:26:41.490Z,1009.19
2018-07-08T12:27:41.514Z,1009.18
2018-07-08T12:28:41.518Z,1009.20
2018-07-08T12:29:41.518Z,1009.16